Time;durP1;ratioP1;P1;durP2;ratioP2;P2;SDS_P1;SDS_P2;PMS_P1;PMS_P2;Temp;Humidity;BMP_temperature;BMP_pressure;BME280_temperature;BME280_humidity;BME280_pressure;Samples;Min_cycle;Max_cycle;Signal;HPM_P1;HPM_P2
2021/09/06 00:00:51;;;;;;;8.63;7.80;;;;;;;14.86;93.18;99157.50;4997184;28;102727;-69
2021/09/06 00:03:19;;;;;;;6.50;5.90;;;;;;;15.05;91.41;99162.97;4980898;28;102759;-68
2021/09/06 00:05:48;;;;;;;6.80;6.17;;;;;;;14.99;91.71;99163.47;4978568;28;103036;-68
2021/09/06 00:08:17;;;;;;;9.17;8.30;;;;;;;14.79;93.30;99173.09;4992804;28;102973;-68
2021/09/06 00:10:47;;;;;;;6.67;6.07;;;;;;;15.03;91.44;99165.78;4976436;28;102631;-68
2021/09/06 00:13:17;;;;;;;9.55;7.53;;;;;;;15.00;90.59;99159.84;4979513;28;102833;-69
2021/09/06 00:15:47;;;;;;;8.73;7.93;;;;;;;14.80;91.76;99161.50;4995080;28;103289;-68
2021/09/06 00:18:15;;;;;;;7.97;7.00;;;;;;;14.79;92.50;99161.66;4972065;28;103112;-67
2021/09/06 00:20:44;;;;;;;9.15;8.13;;;;;;;14.61;93.31;99163.13;4997169;28;102664;-62
2021/09/06 00:23:12;;;;;;;8.73;7.90;;;;;;;14.70;92.13;99162.41;4997380;28;103014;-60
2021/09/06 00:25:42;;;;;;;8.40;6.97;;;;;;;14.73;92.16;99162.16;4996466;28;103424;-67
2021/09/06 00:28:10;;;;;;;6.83;6.23;;;;;;;14.48;94.89;99163.31;4998570;28;102989;-69
2021/09/06 00:30:39;;;;;;;7.10;6.23;;;;;;;14.73;93.37;99168.31;4981614;28;102663;-70
2021/09/06 00:33:09;;;;;;;7.67;6.97;;;;;;;14.80;91.28;99158.00;4979675;28;103084;-68
2021/09/06 00:35:38;;;;;;;9.53;8.53;;;;;;;14.43;93.77;99165.47;4995872;28;103253;-67
2021/09/06 00:38:06;;;;;;;9.27;7.87;;;;;;;14.00;98.91;99157.41;4981826;28;103733;-69
2021/09/06 00:40:35;;;;;;;9.13;8.23;;;;;;;14.09;98.43;99167.28;4997661;28;102749;-63
2021/09/06 00:43:03;;;;;;;8.80;7.97;;;;;;;14.18;98.12;99161.25;4982681;28;102699;-61
2021/09/06 00:45:31;;;;;;;7.00;6.20;;;;;;;14.42;96.17;99163.78;4999939;28;103265;-60
2021/09/06 00:47:59;;;;;;;8.87;7.87;;;;;;;14.49;94.68;99159.66;4999308;28;103214;-60
2021/09/06 00:50:29;;;;;;;6.87;6.27;;;;;;;14.62;92.89;99160.38;4998022;28;102996;-67
2021/09/06 00:52:57;;;;;;;7.60;6.90;;;;;;;14.58;92.69;99150.94;4991627;28;102763;-67
2021/09/06 00:55:29;;;;;;;7.07;6.37;;;;;;;14.72;91.48;99155.97;4980794;28;103479;-60
2021/09/06 00:57:58;;;;;;;8.50;7.70;;;;;;;14.42;94.63;99159.34;4998914;28;103257;-60
2021/09/06 01:00:27;;;;;;;10.57;7.70;;;;;;;14.49;94.69;99155.19;4998491;28;102603;-67
2021/09/06 01:02:56;;;;;;;11.27;8.13;;;;;;;14.49;94.22;99151.69;4988832;28;102921;-60
2021/09/06 01:05:30;;;;;;;10.63;9.20;;;;;;;14.00;99.37;99160.06;4995919;28;103320;-66
2021/09/06 01:08:30;;;;;;;10.53;9.50;;;;;;;13.87;100.00;99160.16;4975221;28;105659;-67
2021/09/06 01:11:27;;;;;;;10.73;9.63;;;;;;;13.90;100.00;99169.69;4980875;28;102679;-67
2021/09/06 01:14:12;;;;;;;12.60;10.10;;;;;;;13.97;100.00;99168.28;4978288;28;104105;-67
2021/09/06 01:16:41;;;;;;;10.77;9.77;;;;;;;14.00;100.00;99172.50;4978659;28;104258;-61
2021/09/06 01:19:10;;;;;;;10.90;9.80;;;;;;;13.89;100.00;99165.38;4977723;28;103567;-68
2021/09/06 01:21:40;;;;;;;8.27;7.50;;;;;;;14.00;100.00;99173.34;4993619;28;102636;-68
2021/09/06 01:24:26;;;;;;;11.57;10.47;;;;;;;13.72;100.00;99174.66;4995124;28;102709;-67
2021/09/06 01:26:59;;;;;;;10.10;9.10;;;;;;;13.80;100.00;99176.72;4975933;28;103399;-60
2021/09/06 01:29:28;;;;;;;12.40;11.20;;;;;;;13.57;100.00;99177.63;4996143;28;103228;-60
2021/09/06 01:31:58;;;;;;;10.23;9.33;;;;;;;13.62;100.00;99178.13;4977340;28;102771;-61
2021/09/06 01:34:26;;;;;;;10.77;9.50;;;;;;;13.60;100.00;99185.38;4976236;28;104056;-67
2021/09/06 01:36:59;;;;;;;11.20;10.10;;;;;;;13.52;100.00;99182.47;4984055;28;105630;-61
2021/09/06 01:39:28;;;;;;;11.37;10.23;;;;;;;13.48;100.00;99186.28;5002206;28;103232;-60
2021/09/06 01:41:57;;;;;;;12.00;10.63;;;;;;;13.49;100.00;99182.69;5001158;28;102712;-67
2021/09/06 01:44:27;;;;;;;10.43;9.43;;;;;;;13.61;100.00;99189.72;5000927;28;102850;-67
2021/09/06 01:46:55;;;;;;;8.93;8.13;;;;;;;13.75;100.00;99189.50;4981478;28;103358;-60
2021/09/06 01:49:24;;;;;;;9.30;8.40;;;;;;;13.83;99.69;99187.09;5001160;28;103565;-60
2021/09/06 01:51:53;;;;;;;9.70;8.67;;;;;;;13.49;100.00;99186.19;4981526;28;103383;-61
2021/09/06 01:54:21;;;;;;;10.27;9.30;;;;;;;13.63;100.00;99185.13;4981640;28;103395;-60
2021/09/06 01:56:50;;;;;;;11.67;9.97;;;;;;;13.55;100.00;99190.19;5001131;28;104157;-60
2021/09/06 01:59:18;;;;;;;11.20;10.00;;;;;;;13.64;100.00;99178.88;4996365;28;103226;-67
2021/09/06 02:01:48;;;;;;;9.80;8.83;;;;;;;13.66;100.00;99179.59;4974355;28;103904;-67
2021/09/06 02:04:18;;;;;;;10.50;9.40;;;;;;;13.59;100.00;99183.66;4981026;28;102776;-67
2021/09/06 02:06:47;;;;;;;9.37;8.53;;;;;;;13.57;100.00;99185.59;4979628;28;103672;-61
2021/09/06 02:09:15;;;;;;;10.97;8.60;;;;;;;13.73;100.00;99184.28;4976697;28;103308;-60
2021/09/06 02:11:43;;;;;;;8.37;7.20;;;;;;;13.90;98.74;99182.97;4982000;28;102961;-60
2021/09/06 02:14:13;;;;;;;8.03;7.30;;;;;;;13.99;96.98;99186.72;4981406;28;104625;-60
2021/09/06 02:16:45;;;;;;;6.83;6.23;;;;;;;14.11;95.16;99186.63;4983277;28;103348;-60
2021/09/06 02:19:30;;;;;;;6.00;5.40;;;;;;;14.13;93.03;99183.84;4979274;28;103055;-67
2021/09/06 02:21:58;;;;;;;8.27;7.40;;;;;;;14.14;91.35;99191.69;4982446;28;102704;-67
2021/09/06 02:24:30;;;;;;;6.27;5.77;;;;;;;13.95;94.36;99194.09;4978781;28;102754;-67
2021/09/06 02:27:04;;;;;;;5.83;5.33;;;;;;;14.05;92.59;99197.72;5001681;28;103499;-67
2021/09/06 02:29:37;;;;;;;5.87;5.37;;;;;;;14.10;91.19;99195.56;4977682;28;103101;-67
2021/09/06 02:32:23;;;;;;;5.43;4.93;;;;;;;14.12;90.51;99198.94;4996621;28;102599;-60
2021/09/06 02:35:12;;;;;;;7.17;6.43;;;;;;;14.05;90.23;99196.88;5001472;28;103043;-61
2021/09/06 02:37:40;;;;;;;8.57;7.67;;;;;;;13.58;93.28;99201.44;5000913;28;103298;-60
2021/09/06 02:40:13;;;;;;;9.43;7.87;;;;;;;13.39;95.68;99198.47;4983134;28;103249;-60
2021/09/06 02:42:43;;;;;;;7.57;6.77;;;;;;;13.40;96.99;99196.66;4977359;28;102668;-60
2021/09/06 02:45:12;;;;;;;6.73;6.13;;;;;;;13.60;96.20;99196.00;4982445;28;104541;-67
2021/09/06 02:47:44;;;;;;;9.63;8.53;;;;;;;13.40;96.64;99196.66;4977995;28;103244;-67
2021/09/06 02:50:16;;;;;;;10.83;9.70;;;;;;;13.08;99.47;99199.09;5001161;28;103183;-59
2021/09/06 02:52:46;;;;;;;11.73;10.50;;;;;;;12.98;100.00;99201.53;4979812;28;102874;-61
2021/09/06 02:55:17;;;;;;;8.40;7.60;;;;;;;13.25;100.00;99202.16;5001722;28;102626;-60
2021/09/06 02:57:47;;;;;;;9.83;8.83;;;;;;;13.23;99.10;99193.47;4982702;28;104090;-66
2021/09/06 03:00:17;;;;;;;8.10;7.30;;;;;;;13.44;97.91;99196.31;4981898;28;103198;-67
2021/09/06 03:02:46;;;;;;;8.13;7.33;;;;;;;13.53;95.94;99197.44;4999621;28;102621;-66
2021/09/06 03:05:16;;;;;;;7.20;6.50;;;;;;;13.65;94.81;99199.13;4980218;28;102742;-67
2021/09/06 03:07:50;;;;;;;7.57;6.77;;;;;;;13.59;93.05;99194.28;4996995;28;103355;-67
2021/09/06 03:10:19;;;;;;;6.60;5.90;;;;;;;13.60;92.80;99201.31;4975477;28;104723;-67
2021/09/06 03:12:47;;;;;;;7.17;6.57;;;;;;;13.57;92.54;99201.53;4979093;28;102657;-67
2021/09/06 03:15:16;;;;;;;10.10;9.10;;;;;;;12.93;98.71;99201.03;4979838;28;104066;-67
2021/09/06 03:17:44;;;;;;;10.00;9.00;;;;;;;13.03;99.14;99201.19;4982285;28;103110;-67
2021/09/06 03:20:27;;;;;;;10.43;9.33;;;;;;;12.87;99.76;99200.63;4975329;28;103226;-60
2021/09/06 03:22:56;;;;;;;10.87;9.57;;;;;;;12.88;100.00;99194.41;4981162;28;102660;-60
2021/09/06 03:25:24;;;;;;;11.43;9.93;;;;;;;12.88;100.00;99200.56;4979536;28;103976;-67
2021/09/06 03:27:52;;;;;;;9.83;8.83;;;;;;;12.94;100.00;99193.94;4978661;28;103340;-67
2021/09/06 03:30:21;;;;;;;8.67;7.80;;;;;;;12.91;100.00;99192.38;4999195;28;103230;-67
2021/09/06 03:40:43;;;;;;;10.43;9.47;;;;;;;12.59;100.00;99193.88;4996690;28;104009;-60
2021/09/06 03:43:13;;;;;;;12.20;10.97;;;;;;;12.42;100.00;99196.88;4974861;28;103252;-67
2021/09/06 03:45:41;;;;;;;13.10;11.80;;;;;;;12.33;100.00;99194.88;4985615;28;103202;-67
2021/09/06 03:48:10;;;;;;;10.83;9.93;;;;;;;12.46;100.00;99201.03;4981888;28;102729;-67
2021/09/06 03:50:38;;;;;;;10.47;9.33;;;;;;;12.55;100.00;99201.19;4998619;28;104212;-67
2021/09/06 03:53:11;;;;;;;8.93;7.87;;;;;;;12.79;100.00;99194.13;4983911;28;103199;-67
2021/09/06 03:55:39;;;;;;;7.10;6.50;;;;;;;12.96;100.00;99190.22;5000664;28;103134;-67
2021/09/06 03:58:11;;;;;;;12.00;10.37;;;;;;;12.76;100.00;99198.78;4979093;28;102809;-67
2021/09/06 04:00:40;;;;;;;12.13;11.03;;;;;;;12.55;100.00;99200.34;5000060;28;103467;-67
2021/09/06 04:03:12;;;;;;;10.30;9.20;;;;;;;12.56;100.00;99197.59;4981420;28;107081;-67
2021/09/06 04:05:41;;;;;;;12.37;11.00;;;;;;;12.41;100.00;99209.28;4983635;28;102783;-60
2021/09/06 04:08:09;;;;;;;10.93;9.83;;;;;;;12.37;100.00;99199.03;4994020;28;103217;-60
2021/09/06 04:10:38;;;;;;;8.03;7.30;;;;;;;12.48;100.00;99209.69;4980391;28;103157;-60
2021/09/06 04:13:07;;;;;;;9.00;8.10;;;;;;;12.71;100.00;99200.94;4992160;28;103196;-67
2021/09/06 04:15:37;;;;;;;7.83;7.13;;;;;;;12.80;100.00;99205.53;4981449;28;102833;-60
2021/09/06 04:18:05;;;;;;;9.00;8.20;;;;;;;12.65;100.00;99206.69;4979203;28;102854;-60
2021/09/06 04:20:34;;;;;;;8.13;7.33;;;;;;;12.79;99.90;99203.88;4978037;28;106110;-60
2021/09/06 04:23:03;;;;;;;9.57;7.63;;;;;;;12.83;99.15;99210.63;4990257;28;103308;-60
2021/09/06 04:25:31;;;;;;;10.90;9.73;;;;;;;12.58;100.00;99216.03;4980362;28;102723;-67
2021/09/06 04:28:01;;;;;;;7.57;6.87;;;;;;;12.59;100.00;99202.66;4972560;28;102721;-60
2021/09/06 04:30:30;;;;;;;9.93;8.93;;;;;;;12.54;100.00;99214.56;4996097;28;103349;-60
2021/09/06 04:33:00;;;;;;;11.73;9.57;;;;;;;12.34;100.00;99216.00;4970215;28;103086;-60
2021/09/06 04:35:28;;;;;;;8.60;7.30;;;;;;;12.50;100.00;99219.22;5000089;28;102722;-60
2021/09/06 04:37:56;;;;;;;7.63;6.97;;;;;;;12.67;100.00;99220.66;4996156;28;102745;-60
2021/09/06 04:40:24;;;;;;;6.53;5.93;;;;;;;12.82;99.08;99219.56;4995562;28;103507;-59
2021/09/06 04:42:54;;;;;;;9.73;8.77;;;;;;;12.65;97.39;99233.19;4981470;28;103199;-60
2021/09/06 04:45:24;;;;;;;8.07;7.30;;;;;;;12.67;99.20;99231.25;4979333;28;102768;-66
2021/09/06 04:47:52;;;;;;;7.60;6.77;;;;;;;12.68;98.48;99230.31;4975991;28;104072;-66
2021/09/06 04:50:22;;;;;;;7.20;6.50;;;;;;;12.78;97.32;99223.38;4980786;28;103365;-60
2021/09/06 04:52:53;;;;;;;5.80;5.20;;;;;;;12.88;95.67;99232.38;4998609;28;103338;-66
2021/09/06 04:55:21;;;;;;;10.10;8.43;;;;;;;12.63;95.53;99241.22;4998654;28;102685;-59
2021/09/06 04:57:49;;;;;;;11.43;10.10;;;;;;;12.26;97.90;99241.34;4980491;28;104070;-60
2021/09/06 05:00:17;;;;;;;10.23;9.27;;;;;;;12.18;100.00;99239.22;4982651;28;104105;-60
2021/09/06 05:02:45;;;;;;;9.43;8.43;;;;;;;12.20;100.00;99254.06;4997215;28;103381;-65
2021/09/06 05:05:14;;;;;;;12.20;9.90;;;;;;;12.16;100.00;99251.72;4981074;28;103121;-65
2021/09/06 05:07:44;;;;;;;9.60;8.70;;;;;;;12.37;100.00;99244.94;4979540;28;104159;-65
2021/09/06 05:10:14;;;;;;;7.30;6.60;;;;;;;12.50;100.00;99261.63;4989227;28;103439;-65
2021/09/06 05:12:42;;;;;;;8.67;7.77;;;;;;;12.70;100.00;99263.72;5004367;28;103322;-66
2021/09/06 05:15:11;;;;;;;7.20;6.50;;;;;;;12.74;98.72;99253.75;4993844;28;102886;-66
2021/09/06 05:17:39;;;;;;;6.37;5.77;;;;;;;12.89;96.45;99263.22;4991432;28;103941;-67
2021/09/06 05:20:09;;;;;;;7.10;6.40;;;;;;;12.94;95.28;99271.66;4973023;28;104348;-67
2021/09/06 05:22:37;;;;;;;7.73;6.93;;;;;;;13.02;94.07;99272.00;4981382;28;103491;-66
2021/09/06 05:25:12;;;;;;;7.00;6.30;;;;;;;13.01;94.27;99262.31;4971418;28;103352;-66
2021/09/06 05:27:40;;;;;;;7.80;7.00;;;;;;;12.96;93.71;99259.16;4979714;28;103184;-67
2021/09/06 05:30:10;;;;;;;10.63;8.33;;;;;;;12.93;95.25;99269.16;4975723;28;103921;-66
2021/09/06 05:32:39;;;;;;;11.17;10.10;;;;;;;12.77;99.99;99275.56;4975186;28;103488;-59
2021/09/06 05:35:11;;;;;;;13.23;10.73;;;;;;;12.85;100.00;99277.66;4979876;28;103292;-61
2021/09/06 05:37:43;;;;;;;13.23;11.70;;;;;;;12.80;100.00;99277.97;4983034;28;102852;-67
2021/09/06 05:40:14;;;;;;;8.70;7.90;;;;;;;13.00;100.00;99283.63;4975698;28;103331;-68
2021/09/06 05:42:42;;;;;;;8.20;7.40;;;;;;;13.27;100.00;99274.56;4996958;28;104008;-61
2021/09/06 05:45:11;;;;;;;11.00;9.20;;;;;;;13.38;99.03;99280.84;4979479;28;103505;-60
2021/09/06 05:47:43;;;;;;;6.73;6.07;;;;;;;13.53;99.13;99285.03;4983268;28;102703;-67
2021/09/06 05:50:17;;;;;;;6.57;5.97;;;;;;;13.70;97.70;99276.63;4986702;28;105330;-60
2021/09/06 05:53:05;;;;;;;6.70;6.00;;;;;;;13.80;98.08;99285.59;4997280;28;103134;-60
2021/09/06 05:55:35;;;;;;;6.80;6.13;;;;;;;13.91;97.15;99283.81;4998865;28;102568;-60
2021/09/06 05:58:04;;;;;;;11.27;10.17;;;;;;;13.98;96.58;99286.00;4997778;28;102734;-60
2021/09/06 06:00:34;;;;;;;9.87;8.60;;;;;;;14.10;97.75;99291.19;4982398;28;103475;-60
2021/09/06 06:03:04;;;;;;;10.57;8.80;;;;;;;14.10;97.37;99288.53;4985621;28;103562;-60
2021/09/06 06:05:33;;;;;;;9.83;8.93;;;;;;;14.24;97.14;99290.97;4987443;28;102713;-66
2021/09/06 06:08:02;;;;;;;8.03;7.23;;;;;;;14.43;95.61;99296.56;4985044;28;103965;-66
2021/09/06 06:10:31;;;;;;;11.17;10.03;;;;;;;14.49;95.69;99293.44;4971865;28;103342;-60
2021/09/06 06:13:01;;;;;;;11.73;10.27;;;;;;;14.30;97.38;99298.47;4994827;28;103430;-60
2021/09/06 06:15:29;;;;;;;8.10;7.30;;;;;;;14.64;96.48;99295.84;4974944;28;103348;-60
2021/09/06 06:17:58;;;;;;;11.67;10.03;;;;;;;14.67;95.76;99301.78;4990671;28;102600;-66
2021/09/06 06:20:27;;;;;;;14.07;10.70;;;;;;;14.54;97.22;99300.22;4976031;28;103337;-67
2021/09/06 06:23:14;;;;;;;11.13;10.03;;;;;;;14.66;97.65;99305.41;4989316;28;102982;-68
2021/09/06 06:26:02;;;;;;;8.13;7.33;;;;;;;14.96;96.40;99300.28;4994976;28;102897;-65
2021/09/06 06:28:31;;;;;;;8.63;7.57;;;;;;;15.19;94.73;99295.75;5001402;28;102794;-66
2021/09/06 06:31:00;;;;;;;7.70;6.90;;;;;;;15.34;93.56;99302.47;4996866;28;104073;-58
2021/09/06 06:33:30;;;;;;;10.90;9.17;;;;;;;15.52;92.37;99300.97;5001387;28;103242;-59
2021/09/06 06:36:05;;;;;;;9.83;8.93;;;;;;;15.69;91.80;99312.06;4981155;28;102685;-66
2021/09/06 06:38:35;;;;;;;9.97;8.97;;;;;;;15.81;90.92;99305.69;4980460;28;102750;-66
2021/09/06 06:41:04;;;;;;;12.37;10.33;;;;;;;15.79;91.06;99307.66;4980177;28;103356;-66
2021/09/06 06:43:46;;;;;;;12.40;10.47;;;;;;;15.87;90.52;99310.50;4978768;28;103902;-66
2021/09/06 06:46:18;;;;;;;9.93;9.03;;;;;;;16.13;89.08;99311.81;5002650;28;102755;-59
2021/09/06 06:48:48;;;;;;;9.10;8.30;;;;;;;16.04;89.40;99313.44;5002250;28;102859;-60
2021/09/06 06:51:23;;;;;;;12.23;10.23;;;;;;;16.23;88.26;99318.03;4984436;28;103422;-59
2021/09/06 06:53:51;;;;;;;9.53;7.77;;;;;;;16.48;87.71;99308.75;4983492;28;106141;-59
2021/09/06 06:56:24;;;;;;;8.53;7.67;;;;;;;16.62;87.05;99314.63;4980807;28;102731;-67
2021/09/06 06:58:56;;;;;;;9.00;8.10;;;;;;;16.89;85.69;99308.69;4980128;28;102685;-59
2021/09/06 07:01:25;;;;;;;12.07;9.40;;;;;;;16.54;87.82;99310.94;4984800;28;103341;-68
2021/09/06 07:03:55;;;;;;;8.80;8.00;;;;;;;16.85;86.63;99319.75;4988215;28;105258;-60
2021/09/06 07:06:25;;;;;;;10.50;9.10;;;;;;;17.12;85.64;99317.34;4998595;28;102660;-68
2021/09/06 07:08:54;;;;;;;7.73;6.80;;;;;;;17.36;84.63;99309.78;4995916;28;102652;-67
2021/09/06 07:11:24;;;;;;;8.53;7.10;;;;;;;17.61;83.43;99309.25;4992794;28;103321;-60
2021/09/06 07:13:59;;;;;;;10.17;8.50;;;;;;;17.61;83.05;99314.59;4980113;28;103401;-67
2021/09/06 07:16:28;;;;;;;10.93;9.57;;;;;;;17.65;82.73;99309.84;4994254;28;102644;-66
2021/09/06 07:18:57;;;;;;;12.93;10.37;;;;;;;17.78;81.52;99316.56;4995753;28;102682;-66
2021/09/06 07:21:26;;;;;;;11.38;9.90;;;;;;;17.93;81.16;99306.31;4985564;28;103352;-58
2021/09/06 07:23:55;;;;;;;16.15;11.48;;;;;;;17.77;81.86;99317.56;4980523;28;103001;-67
2021/09/06 07:26:24;;;;;;;11.15;10.02;;;;;;;17.98;81.26;99311.22;4995204;28;104422;-59
2021/09/06 07:28:58;;;;;;;9.82;8.93;;;;;;;18.32;79.06;99317.75;4977729;28;103611;-59
2021/09/06 07:31:29;;;;;;;7.82;7.13;;;;;;;18.70;77.79;99324.84;4978326;28;103456;-59
2021/09/06 07:33:58;;;;;;;11.18;9.45;;;;;;;18.71;76.36;99316.69;4997290;28;103260;-59
2021/09/06 07:36:28;;;;;;;8.35;7.55;;;;;;;19.02;76.92;99320.75;4977542;28;102955;-59
2021/09/06 07:38:57;;;;;;;8.57;7.78;;;;;;;19.49;74.29;99312.59;4975766;28;102712;-60
2021/09/06 07:41:26;;;;;;;9.35;7.88;;;;;;;19.96;72.66;99322.06;4971706;28;102910;-59
2021/09/06 07:43:55;;;;;;;10.88;8.32;;;;;;;19.87;71.90;99317.66;4996242;28;103332;-60
2021/09/06 07:46:24;;;;;;;11.27;7.10;;;;;;;20.41;71.57;99321.06;4997953;28;103066;-59
2021/09/06 07:48:56;;;;;;;10.13;8.88;;;;;;;20.55;69.88;99331.22;4978733;28;104000;-60
2021/09/06 07:51:25;;;;;;;10.30;9.18;;;;;;;20.98;68.04;99315.00;4974897;28;105269;-59
2021/09/06 07:53:53;;;;;;;8.68;7.78;;;;;;;21.19;67.24;99328.06;4981164;28;103469;-69
2021/09/06 07:56:22;;;;;;;8.27;7.47;;;;;;;21.72;66.95;99319.59;4972302;28;102710;-59
2021/09/06 07:58:50;;;;;;;9.75;8.02;;;;;;;21.61;65.12;99326.16;4969354;28;102826;-59
2021/09/06 08:01:21;;;;;;;8.05;6.90;;;;;;;21.92;64.76;99327.19;4994546;28;103597;-60
2021/09/06 08:03:50;;;;;;;8.00;7.20;;;;;;;21.75;67.29;99330.03;4975495;28;103197;-60
2021/09/06 08:06:20;;;;;;;8.43;7.40;;;;;;;22.48;65.26;99337.06;4979780;28;102656;-62
2021/09/06 08:08:49;;;;;;;8.98;7.63;;;;;;;22.79;62.78;99328.31;4982917;28;103273;-60
2021/09/06 08:11:17;;;;;;;7.78;6.97;;;;;;;23.23;61.71;99332.16;4980593;28;103927;-61
2021/09/06 08:13:46;;;;;;;8.15;7.18;;;;;;;23.15;61.94;99332.22;4980630;28;103198;-60
2021/09/06 08:16:14;;;;;;;8.30;7.50;;;;;;;23.46;61.14;99343.88;4990520;28;102725;-61
2021/09/06 08:18:45;;;;;;;7.82;7.05;;;;;;;24.06;60.44;99348.50;4978462;28;102838;-60
2021/09/06 08:21:14;;;;;;;7.20;6.45;;;;;;;24.04;58.78;99355.94;4980600;28;105433;-61
2021/09/06 08:23:44;;;;;;;9.55;7.88;;;;;;;23.12;58.34;99354.13;4980390;28;103197;-60
2021/09/06 08:26:13;;;;;;;7.15;6.45;;;;;;;24.32;58.51;99359.78;4979389;28;102718;-61
2021/09/06 08:28:41;;;;;;;8.93;6.80;;;;;;;24.62;57.84;99358.81;4997618;28;102678;-61
2021/09/06 08:31:10;;;;;;;7.53;6.72;;;;;;;23.90;57.12;99362.13;4983369;28;103294;-61
2021/09/06 08:33:41;;;;;;;8.93;7.32;;;;;;;23.80;58.54;99369.63;5001125;28;103424;-60
2021/09/06 08:36:11;;;;;;;7.93;7.18;;;;;;;24.87;56.90;99358.63;4979775;28;104433;-61
2021/09/06 08:38:45;;;;;;;10.60;7.55;;;;;;;24.75;53.87;99371.72;4976589;28;103289;-69
2021/09/06 08:41:14;;;;;;;9.75;7.45;;;;;;;24.40;55.92;99365.13;4981180;28;105662;-61
2021/09/06 08:43:44;;;;;;;7.05;6.32;;;;;;;24.86;56.30;99373.13;4987112;28;103245;-69
2021/09/06 08:46:23;;;;;;;6.50;5.88;;;;;;;25.41;53.51;99367.22;4998562;28;102652;-59
2021/09/06 08:48:52;;;;;;;8.32;6.80;;;;;;;25.58;53.00;99363.28;4985205;28;104220;-59
2021/09/06 08:51:23;;;;;;;6.85;5.90;;;;;;;25.96;53.35;99362.06;4978500;28;103254;-59
2021/09/06 08:53:53;;;;;;;8.25;6.50;;;;;;;25.93;51.72;99362.44;4998870;28;103278;-59
2021/09/06 08:56:23;;;;;;;7.05;6.35;;;;;;;26.65;51.02;99359.56;4981391;28;103023;-68
2021/09/06 08:59:08;;;;;;;7.35;6.70;;;;;;;26.61;50.31;99364.53;4980150;28;102849;-59
2021/09/06 09:01:38;;;;;;;9.63;5.93;;;;;;;26.33;54.00;99369.94;4997575;28;103746;-59
2021/09/06 09:04:23;;;;;;;7.55;5.65;;;;;;;26.95;51.18;99359.16;4978641;28;104105;-59
2021/09/06 09:07:12;;;;;;;7.40;6.70;;;;;;;27.07;48.64;99362.16;4996371;28;102655;-60
2021/09/06 09:10:14;;;;;;;7.03;6.43;;;;;;;27.26;50.09;99355.97;4928492;28;104079;-67
2021/09/06 09:13:06;;;;;;;7.10;6.40;;;;;;;26.74;50.26;99363.78;4969839;28;103222;-68
2021/09/06 09:15:57;;;;;;;7.75;6.13;;;;;;;27.47;50.72;99369.47;4982861;28;103264;-69
2021/09/06 09:18:48;;;;;;;6.78;5.72;;;;;;;26.52;49.53;99363.03;4958811;28;102908;-69
2021/09/06 09:21:31;;;;;;;9.38;6.40;;;;;;;26.85;48.44;99358.69;4984075;28;104123;-63
2021/09/06 09:24:24;;;;;;;5.68;5.18;;;;;;;27.91;48.93;99363.53;4979850;28;103445;-63
2021/09/06 09:27:15;;;;;;;7.28;5.95;;;;;;;28.21;46.36;99366.78;4991758;28;103148;-69
2021/09/06 09:30:00;;;;;;;7.10;6.40;;;;;;;28.14;45.70;99366.75;4973806;28;102714;-69
2021/09/06 09:32:37;;;;;;;6.00;5.38;;;;;;;28.55;44.73;99357.56;4978996;28;103014;-62
2021/09/06 09:35:14;;;;;;;7.00;6.30;;;;;;;28.02;45.39;99362.09;4976398;28;106001;-69
2021/09/06 09:37:43;;;;;;;6.45;5.85;;;;;;;28.11;46.39;99361.75;4997214;28;103247;-70
2021/09/06 09:40:15;;;;;;;8.05;5.50;;;;;;;28.58;43.71;99357.97;4989905;28;103211;-70
2021/09/06 09:42:49;;;;;;;7.63;6.65;;;;;;;28.28;45.96;99359.44;4999327;28;102758;-69
2021/09/06 09:45:27;;;;;;;7.85;6.20;;;;;;;28.45;44.09;99362.59;4994388;28;103542;-69
2021/09/06 09:48:24;;;;;;;7.50;6.75;;;;;;;28.17;43.73;99350.06;4981587;28;103393;-63
2021/09/06 09:50:53;;;;;;;7.85;6.32;;;;;;;28.73;42.91;99355.06;4978365;28;102704;-63
2021/09/06 09:53:22;;;;;;;9.05;6.20;;;;;;;27.67;45.38;99353.25;4997422;28;102617;-70
2021/09/06 09:55:52;;;;;;;5.72;5.22;;;;;;;28.19;46.04;99353.38;4999674;28;103295;-70
2021/09/06 09:58:22;;;;;;;8.70;6.18;;;;;;;28.21;45.79;99347.75;4999858;28;103230;-70
2021/09/06 10:00:52;;;;;;;8.93;6.50;;;;;;;28.66;44.08;99343.38;5001638;28;102691;-70
2021/09/06 10:03:25;;;;;;;6.28;5.68;;;;;;;28.53;45.31;99346.06;5002253;28;104424;-70
2021/09/06 10:05:55;;;;;;;6.47;5.93;;;;;;;28.72;44.76;99348.78;5000972;28;104039;-70
2021/09/06 10:08:24;;;;;;;7.07;6.38;;;;;;;28.72;41.99;99347.94;4999916;28;103803;-69
2021/09/06 10:10:53;;;;;;;6.68;5.93;;;;;;;28.58;42.17;99347.09;4981222;28;102715;-62
2021/09/06 10:13:25;;;;;;;6.38;5.75;;;;;;;28.95;42.93;99347.50;5002999;28;103110;-62
2021/09/06 10:16:00;;;;;;;7.07;6.45;;;;;;;28.78;40.64;99341.66;5000658;28;103353;-62
2021/09/06 10:18:37;;;;;;;6.85;6.25;;;;;;;28.77;41.60;99333.75;4998698;28;103188;-64
2021/09/06 10:21:14;;;;;;;7.10;5.70;;;;;;;28.52;42.32;99328.91;4999479;28;102534;-65
2021/09/06 10:23:43;;;;;;;6.70;6.10;;;;;;;28.83;41.84;99328.28;5001427;28;102964;-65
2021/09/06 10:26:14;;;;;;;6.47;5.88;;;;;;;28.52;41.69;99326.19;4996871;28;103341;-63
2021/09/06 10:28:43;;;;;;;6.85;6.25;;;;;;;29.03;42.00;99323.63;4999205;28;103236;-70
2021/09/06 10:31:19;;;;;;;5.68;5.22;;;;;;;28.71;42.80;99325.38;4981406;28;102943;-69
2021/09/06 10:33:58;;;;;;;6.82;6.15;;;;;;;28.74;40.30;99319.50;4982236;28;102816;-69
2021/09/06 10:36:28;;;;;;;7.45;6.75;;;;;;;29.35;41.78;99315.56;4993038;28;103321;-69
2021/09/06 10:39:04;;;;;;;6.18;5.60;;;;;;;29.28;41.91;99315.59;4991388;28;103379;-70
2021/09/06 10:41:44;;;;;;;6.53;5.97;;;;;;;28.72;41.10;99315.31;4991420;28;103105;-63
2021/09/06 10:44:18;;;;;;;6.22;5.72;;;;;;;28.84;40.98;99305.47;4992428;28;102847;-62
2021/09/06 10:46:54;;;;;;;6.50;5.90;;;;;;;28.48;40.80;99318.69;4991649;28;103140;-69
2021/09/06 10:49:25;;;;;;;6.95;6.22;;;;;;;28.58;40.73;99310.94;4971148;28;103038;-63
2021/09/06 10:51:56;;;;;;;7.25;6.60;;;;;;;29.11;40.73;99309.78;4990574;28;102812;-62
2021/09/06 10:54:24;;;;;;;11.10;6.05;;;;;;;28.92;40.16;99302.53;4968733;28;103297;-63
2021/09/06 10:56:53;;;;;;;6.03;5.53;;;;;;;29.01;40.91;99303.97;4975955;28;103350;-62
2021/09/06 10:59:27;;;;;;;6.60;6.03;;;;;;;29.13;39.16;99306.84;4993120;28;103202;-61
2021/09/06 11:01:58;;;;;;;7.90;6.35;;;;;;;28.91;39.41;99308.19;4993801;28;103119;-70
2021/09/06 11:04:31;;;;;;;6.97;6.10;;;;;;;29.38;40.21;99301.53;4992790;28;102742;-70
2021/09/06 11:07:01;;;;;;;5.70;5.30;;;;;;;29.33;40.05;99294.84;4991629;28;103675;-70
2021/09/06 11:09:30;;;;;;;6.78;6.18;;;;;;;28.39;42.28;99295.50;4990424;28;103341;-70
2021/09/06 11:12:01;;;;;;;6.25;5.65;;;;;;;29.06;41.88;99297.88;4968743;28;102801;-70
2021/09/06 11:14:36;;;;;;;6.30;5.80;;;;;;;29.03;40.34;99296.41;4992309;28;103817;-69
2021/09/06 11:17:22;;;;;;;7.22;6.53;;;;;;;28.85;40.59;99296.28;4989472;28;104007;-69
2021/09/06 11:19:55;;;;;;;7.95;7.25;;;;;;;28.81;40.88;99295.03;4988556;28;103194;-69
2021/09/06 11:22:27;;;;;;;7.20;6.50;;;;;;;28.73;39.85;99295.25;4989690;28;102651;-68
2021/09/06 11:24:58;;;;;;;6.88;6.20;;;;;;;29.12;40.29;99299.72;4972360;28;102711;-61
2021/09/06 11:27:30;;;;;;;6.82;6.22;;;;;;;29.50;39.25;99297.94;4986253;28;103290;-61
2021/09/06 11:30:01;;;;;;;6.95;6.32;;;;;;;30.25;39.23;99291.56;4975488;28;104121;-61
2021/09/06 11:32:31;;;;;;;7.00;6.30;;;;;;;30.04;39.33;99293.81;4993857;28;102718;-61
2021/09/06 11:35:06;;;;;;;6.45;5.93;;;;;;;29.80;39.82;99292.75;4983180;28;103739;-68
2021/09/06 11:37:35;;;;;;;6.00;5.50;;;;;;;30.51;38.91;99289.69;4994004;28;103035;-69
2021/09/06 11:40:04;;;;;;;5.85;5.38;;;;;;;30.81;37.44;99286.00;4995239;28;103259;-69
2021/09/06 11:42:32;;;;;;;6.35;5.72;;;;;;;30.56;38.83;99281.66;4990132;28;103125;-69
2021/09/06 11:45:04;;;;;;;5.80;5.30;;;;;;;30.62;38.51;99286.22;4987771;28;102720;-69
2021/09/06 11:47:33;;;;;;;6.70;6.00;;;;;;;30.72;37.89;99276.44;4998635;28;103423;-70